Time;durP1;ratioP1;P1;durP2;ratioP2;P2;SDS_P1;SDS_P2;PMS_P1;PMS_P2;Temp;Humidity;BMP_temperature;BMP_pressure;BME280_temperature;BME280_humidity;BME280_pressure;Samples;Min_cycle;Max_cycle;Signal;HPM_P1;HPM_P2
2022/06/30 00:00:12;;;;;;;5.80;5.20;;;;;;;20.97;82.00;156755.25;5000046;28;20491;-82
2022/06/30 00:02:39;;;;;;;6.20;5.70;;;;;;;20.94;82.98;156748.69;5009801;28;20448;-82
2022/06/30 00:05:06;;;;;;;6.30;5.70;;;;;;;20.92;83.25;156742.16;5010729;28;20452;-82
2022/06/30 00:07:33;;;;;;;6.90;5.40;;;;;;;20.88;81.85;156731.75;5019991;28;20472;-82
2022/06/30 00:10:02;;;;;;;7.23;6.63;;;;;;;20.95;81.50;156750.00;5007870;28;20457;-82
2022/06/30 00:12:28;;;;;;;7.43;6.73;;;;;;;20.98;81.70;156759.13;5023519;28;20461;-82
2022/06/30 00:14:55;;;;;;;8.00;7.20;;;;;;;20.94;82.90;156748.69;5015505;28;20546;-82
2022/06/30 00:17:22;;;;;;;8.30;7.50;;;;;;;20.91;84.30;156739.56;5009973;28;20857;-82
2022/06/30 00:19:49;;;;;;;8.63;7.90;;;;;;;20.88;85.10;156731.75;4987998;28;20562;-82
2022/06/30 00:22:15;;;;;;;10.20;9.20;;;;;;;20.91;85.60;156739.56;5022809;28;20894;-82
2022/06/30 00:24:42;;;;;;;10.27;9.13;;;;;;;20.87;85.90;156730.41;5035137;28;20550;-82
2022/06/30 00:27:11;;;;;;;9.47;8.67;;;;;;;20.82;86.68;156716.06;5030032;28;20483;-82
2022/06/30 00:29:38;;;;;;;8.60;7.90;;;;;;;20.75;90.08;156697.81;5015481;28;20461;-82
2022/06/30 00:32:06;;;;;;;9.73;8.23;;;;;;;20.68;89.13;156679.56;5009861;28;20526;-82
2022/06/30 00:34:33;;;;;;;8.43;7.67;;;;;;;20.64;87.91;156671.72;5012078;28;20526;-82
2022/06/30 00:37:00;;;;;;;9.00;8.07;;;;;;;20.60;88.86;156661.28;5016323;28;20472;-82
2022/06/30 00:39:28;;;;;;;8.30;7.60;;;;;;;20.56;88.06;156650.84;5015957;28;20559;-82
2022/06/30 00:41:55;;;;;;;8.10;7.30;;;;;;;20.53;88.59;156641.72;5014021;28;20999;-82
2022/06/30 00:44:23;;;;;;;7.97;7.13;;;;;;;20.50;86.83;156635.19;5013282;28;20799;-82
2022/06/30 00:46:51;;;;;;;8.27;7.57;;;;;;;20.50;87.01;156635.19;5005042;28;21017;-82
2022/06/30 00:49:18;;;;;;;7.97;7.23;;;;;;;20.50;87.75;156635.19;5011645;28;20902;-82
2022/06/30 00:51:45;;;;;;;9.33;8.30;;;;;;;20.51;87.36;156637.81;5004308;28;20905;-82
2022/06/30 00:54:13;;;;;;;8.50;7.70;;;;;;;20.51;87.00;156637.81;5029298;28;20445;-82
2022/06/30 00:56:43;;;;;;;10.30;7.90;;;;;;;20.52;87.24;156639.06;5013553;28;20479;-82
2022/06/30 00:59:10;;;;;;;8.80;7.90;;;;;;;20.49;87.38;156632.56;5007588;28;20559;-82
2022/06/30 01:01:39;;;;;;;8.43;7.70;;;;;;;20.48;87.48;156628.66;5025565;28;20452;-82
2022/06/30 01:04:07;;;;;;;8.43;7.60;;;;;;;20.46;87.49;156624.78;5028780;28;20463;-82
2022/06/30 01:06:33;;;;;;;8.40;7.70;;;;;;;20.43;87.10;156616.94;5012553;28;20461;-82
2022/06/30 01:09:00;;;;;;;8.10;7.40;;;;;;;20.39;87.50;156605.16;5009153;28;20492;-82
2022/06/30 01:14:11;;;;;;;7.97;7.30;;;;;;;20.27;89.57;156575.19;5011770;28;20959;-82
2022/06/30 01:16:40;;;;;;;8.53;7.73;;;;;;;20.22;89.61;156560.81;5011491;28;20464;-82
2022/06/30 01:19:07;;;;;;;8.73;7.93;;;;;;;20.19;89.43;156554.28;5007977;28;20460;-82
2022/06/30 01:21:35;;;;;;;7.67;7.00;;;;;;;20.19;89.64;156554.28;5027794;28;20460;-82
2022/06/30 01:24:02;;;;;;;8.07;7.37;;;;;;;20.21;89.06;156559.50;5013729;28;20432;-82
2022/06/30 01:26:29;;;;;;;11.13;7.80;;;;;;;20.22;88.31;156560.81;5028350;28;20531;-82
2022/06/30 01:28:56;;;;;;;9.20;8.30;;;;;;;20.19;88.51;156554.28;5026123;28;20496;-82
2022/06/30 01:31:23;;;;;;;9.07;8.20;;;;;;;20.13;89.90;156537.31;5013048;28;20480;-82
2022/06/30 01:33:51;;;;;;;8.53;7.73;;;;;;;20.07;91.15;156522.94;5010953;28;20975;-82
2022/06/30 01:36:17;;;;;;;8.93;7.93;;;;;;;20.01;91.22;156507.34;5028447;28;20503;-82
2022/06/30 01:38:46;;;;;;;10.27;9.37;;;;;;;19.96;92.94;156494.31;5007953;28;20984;-82
2022/06/30 01:41:15;;;;;;;10.30;9.47;;;;;;;19.93;93.54;156486.47;5001235;28;20438;-82
2022/06/30 01:43:42;;;;;;;9.90;9.00;;;;;;;19.90;94.68;156479.97;4997151;28;20916;-82
2022/06/30 01:46:08;;;;;;;9.60;8.80;;;;;;;19.89;94.05;156476.03;4997975;28;20449;-82
2022/06/30 01:48:35;;;;;;;11.70;9.33;;;;;;;19.88;94.09;156474.69;5012012;28;20483;-82
2022/06/30 01:51:02;;;;;;;8.70;8.00;;;;;;;19.90;94.39;156478.66;5001955;28;20766;-82
2022/06/30 01:53:29;;;;;;;9.20;8.40;;;;;;;19.88;94.23;156473.44;5027866;28;20948;-82
2022/06/30 01:55:57;;;;;;;10.13;9.23;;;;;;;19.86;93.74;156468.19;5012261;28;20484;-82
2022/06/30 01:58:23;;;;;;;9.50;8.60;;;;;;;19.85;93.76;156465.63;5010427;28;20836;-82
2022/06/30 02:00:50;;;;;;;9.13;8.33;;;;;;;19.83;94.22;156461.66;5003271;28;20451;-82
2022/06/30 02:03:17;;;;;;;18.13;9.07;;;;;;;19.83;93.22;156460.41;5001445;28;20452;-82
2022/06/30 02:05:44;;;;;;;9.10;8.30;;;;;;;19.81;93.86;156455.16;5016054;28;20507;-82
2022/06/30 02:08:11;;;;;;;9.60;8.70;;;;;;;19.80;93.66;156452.59;5025458;28;20460;-82
2022/06/30 02:10:38;;;;;;;9.40;8.50;;;;;;;19.77;93.52;156444.75;5011758;28;20940;-82
2022/06/30 02:13:06;;;;;;;10.93;9.83;;;;;;;19.78;93.88;156448.63;5012830;28;20985;-82
2022/06/30 02:15:34;;;;;;;10.40;9.40;;;;;;;19.73;93.81;156434.28;5010196;28;20564;-82
2022/06/30 02:18:02;;;;;;;10.07;9.17;;;;;;;19.73;93.93;156434.28;5000830;28;20516;-82
2022/06/30 02:20:29;;;;;;;9.50;8.73;;;;;;;19.70;93.14;156426.47;5008005;28;20452;-82
2022/06/30 02:22:58;;;;;;;10.13;9.13;;;;;;;19.67;93.43;156418.69;5019967;28;20513;-82
2022/06/30 02:25:25;;;;;;;10.90;8.77;;;;;;;19.66;94.39;156416.06;5023205;28;20461;-82
2022/06/30 02:27:52;;;;;;;10.07;9.17;;;;;;;19.62;95.66;156406.91;5010159;28;20472;-82
2022/06/30 02:30:20;;;;;;;10.43;9.53;;;;;;;19.61;94.81;156404.34;5010887;28;20881;-82
2022/06/30 02:32:48;;;;;;;10.77;9.67;;;;;;;19.62;95.13;156405.66;5011290;28;20952;-82
2022/06/30 02:35:14;;;;;;;11.73;10.73;;;;;;;19.60;94.54;156400.41;4999160;28;20482;-82
2022/06/30 02:37:41;;;;;;;11.53;9.63;;;;;;;19.58;94.34;156395.19;5010260;28;20456;-82
2022/06/30 02:40:09;;;;;;;10.83;9.80;;;;;;;19.59;94.84;156397.81;5008373;28;20830;-82
2022/06/30 02:42:36;;;;;;;10.13;9.23;;;;;;;19.58;94.57;156395.19;5016505;28;20440;-82
2022/06/30 02:45:03;;;;;;;10.53;9.63;;;;;;;19.57;94.91;156393.88;5008202;28;20524;-82
2022/06/30 02:47:31;;;;;;;11.20;8.50;;;;;;;19.53;93.96;156382.16;5016676;28;20569;-82
2022/06/30 02:49:58;;;;;;;10.23;9.33;;;;;;;19.51;93.88;156376.97;5025420;28;20468;-82
2022/06/30 02:52:25;;;;;;;9.33;8.50;;;;;;;19.50;93.49;156375.66;5008075;28;20535;-82
2022/06/30 02:54:52;;;;;;;9.17;8.33;;;;;;;19.49;94.13;156371.72;5026088;28;20453;-82
2022/06/30 02:57:18;;;;;;;8.90;8.20;;;;;;;19.47;93.56;156367.81;5026627;28;20917;-82
2022/06/30 02:59:45;;;;;;;8.63;7.90;;;;;;;19.48;93.68;156369.13;5004219;28;20652;-82
2022/06/30 03:02:12;;;;;;;8.67;7.87;;;;;;;19.49;93.49;156371.72;5011699;28;20532;-82
2022/06/30 03:04:40;;;;;;;9.47;8.47;;;;;;;19.49;93.00;156371.72;5011308;28;20539;-82
2022/06/30 03:07:07;;;;;;;8.30;7.57;;;;;;;19.50;92.94;156375.66;5009906;28;20531;-82
2022/06/30 03:09:34;;;;;;;8.50;7.70;;;;;;;19.50;92.88;156374.34;5020333;28;20472;-82
2022/06/30 03:12:01;;;;;;;8.33;7.53;;;;;;;19.47;92.48;156367.81;5007625;28;20465;-82
2022/06/30 03:14:28;;;;;;;8.20;7.40;;;;;;;19.44;92.36;156360.00;5022304;28;20553;-82
2022/06/30 03:16:55;;;;;;;8.17;7.40;;;;;;;19.43;92.23;156357.41;5027271;28;20448;-82
2022/06/30 03:19:25;;;;;;;8.10;7.40;;;;;;;19.40;92.29;156349.59;5025239;28;20448;-82
2022/06/30 03:21:54;;;;;;;7.93;7.23;;;;;;;19.38;92.60;156345.66;5010769;28;20444;-82
2022/06/30 03:24:21;;;;;;;8.60;7.70;;;;;;;19.37;92.72;156341.72;5007310;28;20937;-82
2022/06/30 03:26:48;;;;;;;8.70;6.70;;;;;;;19.35;92.96;156337.78;4994576;28;20449;-82
2022/06/30 03:29:15;;;;;;;8.23;7.53;;;;;;;19.33;93.31;156332.56;4991875;28;20537;-82
2022/06/30 03:31:42;;;;;;;7.33;6.73;;;;;;;19.32;93.66;156330.00;5009041;28;20449;-82
2022/06/30 03:34:09;;;;;;;8.90;8.20;;;;;;;19.29;93.17;156322.16;5010553;28;20876;-82
2022/06/30 03:36:36;;;;;;;10.10;7.50;;;;;;;19.27;93.31;156316.91;4992225;28;20535;-81
2022/06/30 03:39:05;;;;;;;8.67;7.87;;;;;;;19.21;94.64;156301.31;5024955;28;21015;-82
2022/06/30 03:41:32;;;;;;;11.10;8.90;;;;;;;19.23;94.30;156305.19;5009731;28;20440;-82
2022/06/30 03:43:59;;;;;;;7.73;7.03;;;;;;;19.20;94.67;156298.69;5008556;28;20468;-82
2022/06/30 03:46:25;;;;;;;9.10;8.37;;;;;;;19.20;94.71;156298.69;5011186;28;20457;-82
2022/06/30 03:48:52;;;;;;;9.40;8.50;;;;;;;19.17;94.55;156290.88;5010510;28;20563;-82
2022/06/30 03:51:19;;;;;;;9.13;8.43;;;;;;;19.19;95.19;156296.13;5024480;28;20447;-82
2022/06/30 03:53:46;;;;;;;9.37;8.10;;;;;;;19.19;94.90;156296.13;5009065;28;20510;-82
2022/06/30 03:56:14;;;;;;;9.23;8.40;;;;;;;19.21;95.44;156301.31;5010032;28;20535;-81
2022/06/30 03:58:41;;;;;;;8.70;7.80;;;;;;;19.23;95.41;156306.53;5032906;28;20447;-81
2022/06/30 04:01:08;;;;;;;9.00;8.20;;;;;;;19.25;95.75;156310.41;5043137;28;20436;-80
2022/06/30 04:03:34;;;;;;;10.07;9.17;;;;;;;19.23;96.87;156306.53;5015575;28;20947;-80
2022/06/30 04:06:01;;;;;;;9.40;8.10;;;;;;;19.23;96.49;156306.53;5021406;28;20512;-80
2022/06/30 04:08:28;;;;;;;9.03;8.20;;;;;;;19.22;97.07;156303.88;5021631;28;20468;-80
2022/06/30 04:10:54;;;;;;;8.90;8.10;;;;;;;19.29;96.63;156320.84;5022768;28;20459;-81
2022/06/30 04:13:22;;;;;;;10.10;9.03;;;;;;;19.41;96.83;156353.47;5032715;28;20488;-81
2022/06/30 04:15:49;;;;;;;10.33;9.43;;;;;;;19.57;96.33;156392.56;5017081;28;20437;-81
2022/06/30 04:18:16;;;;;;;10.50;9.50;;;;;;;19.78;96.12;156448.63;5021622;28;20477;-81
2022/06/30 04:20:42;;;;;;;10.10;9.10;;;;;;;19.99;95.03;156503.41;5023577;28;20506;-81
2022/06/30 04:23:09;;;;;;;10.27;9.37;;;;;;;20.14;93.88;156539.94;5028636;28;20453;-81
2022/06/30 04:25:37;;;;;;;10.87;9.87;;;;;;;20.29;92.65;156580.41;5020728;28;20539;-81
2022/06/30 04:28:03;;;;;;;10.00;9.13;;;;;;;20.47;92.24;156627.34;5014343;28;20503;-81
2022/06/30 04:33:16;;;;;;;10.47;9.47;;;;;;;20.99;90.43;156760.44;5029123;28;20424;-81
2022/06/30 04:35:43;;;;;;;8.90;8.10;;;;;;;21.23;89.68;156823.16;5023226;28;20580;-81
2022/06/30 04:38:09;;;;;;;9.73;8.93;;;;;;;21.46;88.91;156883.19;5002815;28;20445;-82
2022/06/30 04:43:20;;;;;;;9.17;8.37;;;;;;;21.79;86.91;156969.31;5012721;28;20854;-83
2022/06/30 04:45:48;;;;;;;10.50;9.00;;;;;;;21.78;85.53;156966.75;5028884;28;20560;-83
2022/06/30 04:48:15;;;;;;;9.43;8.53;;;;;;;21.82;84.96;156977.16;5005640;28;20468;-83
2022/06/30 04:50:42;;;;;;;9.77;8.97;;;;;;;21.83;85.01;156978.47;5027594;28;20467;-83
2022/06/30 04:53:09;;;;;;;9.43;8.70;;;;;;;22.04;84.30;157032.03;4994945;28;20487;-83
2022/06/30 04:55:37;;;;;;;10.83;9.40;;;;;;;22.19;83.70;157072.53;5023720;28;20456;-83
2022/06/30 04:58:03;;;;;;;9.67;8.83;;;;;;;22.37;83.06;157119.53;4997737;28;20462;-83
2022/06/30 05:00:30;;;;;;;9.57;8.70;;;;;;;22.61;82.74;157180.94;5010695;28;21918;-83
2022/06/30 05:02:58;;;;;;;9.27;8.57;;;;;;;22.77;80.23;157222.78;5023064;28;20457;-83
2022/06/30 05:05:26;;;;;;;9.40;8.63;;;;;;;22.82;80.68;157235.84;5023725;28;20511;-82
2022/06/30 05:07:52;;;;;;;9.90;9.10;;;;;;;22.90;81.06;157256.75;4996859;28;21006;-83
2022/06/30 05:10:19;;;;;;;10.80;9.97;;;;;;;22.97;80.84;157275.09;5011078;28;20482;-83
2022/06/30 05:12:46;;;;;;;10.10;8.10;;;;;;;23.13;79.48;157315.59;4999069;28;20521;-83
2022/06/30 05:15:13;;;;;;;10.77;9.67;;;;;;;23.23;79.20;157341.72;5027500;28;20463;-83
2022/06/30 05:17:39;;;;;;;9.73;8.97;;;;;;;23.44;78.52;157395.34;5013658;28;20436;-84
2022/06/30 05:20:09;;;;;;;10.33;8.80;;;;;;;23.61;76.81;157439.81;5009354;28;20441;-83
2022/06/30 05:22:36;;;;;;;9.40;8.60;;;;;;;23.97;76.02;157532.59;5013813;28;20445;-83
2022/06/30 05:27:47;;;;;;;9.80;8.80;;;;;;;24.20;75.13;157594.09;5021351;28;20479;-82
2022/06/30 05:30:15;;;;;;;9.73;8.80;;;;;;;24.48;73.87;157666.06;5026097;28;20468;-82
2022/06/30 05:32:41;;;;;;;9.07;8.20;;;;;;;24.69;74.25;157719.69;5012321;28;20849;-82
2022/06/30 05:35:10;;;;;;;8.50;7.80;;;;;;;24.91;73.25;157776.00;5028571;28;20635;-82
2022/06/30 05:37:37;;;;;;;9.43;8.60;;;;;;;25.13;71.72;157834.84;4999644;28;20437;-82
2022/06/30 05:40:05;;;;;;;9.87;8.93;;;;;;;25.39;70.99;157902.91;5002409;28;20452;-82
2022/06/30 05:42:32;;;;;;;9.33;8.53;;;;;;;25.62;70.29;157960.56;5013270;28;20544;-82
2022/06/30 05:44:58;;;;;;;8.50;7.90;;;;;;;25.71;69.77;157984.09;4997714;28;20460;-82
2022/06/30 05:47:25;;;;;;;7.90;7.30;;;;;;;26.00;68.76;158060.03;4992564;28;20445;-82
2022/06/30 05:49:52;;;;;;;8.90;8.10;;;;;;;25.72;68.29;157986.72;5020055;28;20480;-82
2022/06/30 05:52:20;;;;;;;8.97;8.17;;;;;;;25.81;68.81;158011.63;5012751;28;20440;-82
2022/06/30 05:54:47;;;;;;;8.23;7.53;;;;;;;26.03;67.90;158067.88;5000300;28;20512;-84
2022/06/30 05:57:13;;;;;;;8.87;8.07;;;;;;;26.30;67.19;158138.66;4992581;28;20836;-83
2022/06/30 05:59:40;;;;;;;8.53;7.83;;;;;;;26.53;66.16;158198.91;5020303;28;20480;-84
2022/06/30 06:02:07;;;;;;;9.83;7.90;;;;;;;26.77;64.71;158259.19;5019224;28;20480;-84
2022/06/30 06:04:34;;;;;;;9.13;8.23;;;;;;;26.97;62.09;158312.94;5012176;28;20437;-84
2022/06/30 06:07:02;;;;;;;8.90;8.00;;;;;;;26.98;61.56;158314.25;5009233;28;20879;-84
2022/06/30 06:09:31;;;;;;;9.30;8.40;;;;;;;27.13;62.50;158353.53;5011376;28;20930;-84
2022/06/30 06:11:57;;;;;;;8.10;7.50;;;;;;;27.32;61.37;158403.34;5011943;28;20515;-85
2022/06/30 06:14:24;;;;;;;11.13;8.97;;;;;;;27.33;60.77;158404.63;5012150;28;20440;-85
2022/06/30 06:16:51;;;;;;;9.20;8.30;;;;;;;27.37;61.05;158415.13;4998832;28;20481;-84
2022/06/30 06:19:18;;;;;;;10.70;8.70;;;;;;;27.47;60.34;158441.38;5012913;28;20453;-84
2022/06/30 06:21:44;;;;;;;9.33;8.47;;;;;;;27.49;58.68;158446.59;5025358;28;20563;-83
2022/06/30 06:24:11;;;;;;;9.00;8.20;;;;;;;27.20;60.74;158373.19;5033912;28;20468;-83
2022/06/30 06:26:39;;;;;;;8.30;7.70;;;;;;;27.28;60.72;158392.84;5011597;28;20449;-84
2022/06/30 06:29:09;;;;;;;9.00;8.30;;;;;;;27.37;61.74;158416.44;5027294;28;20571;-84
2022/06/30 06:31:37;;;;;;;8.90;8.20;;;;;;;27.28;60.92;158391.50;5012084;28;20476;-84
2022/06/30 06:34:05;;;;;;;9.47;8.27;;;;;;;27.31;61.61;158400.69;5011660;28;20456;-83
2022/06/30 06:36:32;;;;;;;10.77;9.77;;;;;;;27.37;61.71;158416.44;5024147;28;20503;-85
2022/06/30 06:38:59;;;;;;;11.93;9.83;;;;;;;27.45;62.82;158437.47;5025155;28;20486;-85
2022/06/30 06:41:26;;;;;;;9.90;9.00;;;;;;;27.58;59.58;158470.22;5010990;28;20476;-84
2022/06/30 06:43:54;;;;;;;10.20;9.10;;;;;;;27.79;59.50;158525.25;5011333;28;20548;-84
2022/06/30 06:46:26;;;;;;;10.40;8.67;;;;;;;27.82;61.27;158531.81;5013232;28;20476;-85
2022/06/30 06:48:53;;;;;;;9.80;8.13;;;;;;;28.27;58.52;158651.19;5006881;28;20568;-85
2022/06/30 06:51:20;;;;;;;9.20;8.30;;;;;;;28.31;59.27;158660.31;5023682;28;20547;-85
2022/06/30 06:53:48;;;;;;;8.37;7.57;;;;;;;28.32;59.20;158662.97;5011871;28;20524;-85
2022/06/30 06:56:15;;;;;;;9.67;8.80;;;;;;;28.52;57.97;158714.06;5009275;28;20458;-85
2022/06/30 06:58:41;;;;;;;9.53;8.63;;;;;;;28.68;57.68;158757.41;5010839;28;20444;-86
2022/06/30 07:01:10;;;;;;;9.13;8.30;;;;;;;28.91;56.58;158817.72;5010843;28;20472;-85
2022/06/30 07:03:37;;;;;;;9.07;8.17;;;;;;;28.86;58.13;158804.63;5011866;28;20524;-86
2022/06/30 07:06:04;;;;;;;9.20;8.47;;;;;;;28.98;58.86;158836.13;5009803;28;20459;-85
2022/06/30 07:08:31;;;;;;;9.33;8.53;;;;;;;29.20;57.99;158891.22;5006465;28;21347;-85
2022/06/30 07:10:57;;;;;;;8.77;8.07;;;;;;;29.21;57.20;158893.88;4990808;28;20780;-84
2022/06/30 07:13:24;;;;;;;9.03;8.23;;;;;;;29.20;56.65;158891.22;5005571;28;20887;-84
2022/06/30 07:15:51;;;;;;;9.00;8.30;;;;;;;29.37;57.32;158935.84;5009846;28;20445;-84
2022/06/30 07:18:19;;;;;;;8.40;7.70;;;;;;;29.66;55.90;159010.66;5012082;28;20436;-84
2022/06/30 07:20:46;;;;;;;8.53;7.90;;;;;;;29.60;54.82;158996.19;5011270;28;20551;-86
2022/06/30 07:23:13;;;;;;;10.00;8.47;;;;;;;29.99;53.90;159097.34;5004504;28;20485;-85
2022/06/30 07:25:40;;;;;;;8.10;7.50;;;;;;;29.83;54.39;159056.66;5008019;28;20507;-85
2022/06/30 07:28:07;;;;;;;7.93;7.23;;;;;;;29.98;54.12;159096.00;5011330;28;20431;-85
2022/06/30 07:30:34;;;;;;;8.20;7.60;;;;;;;30.10;53.96;159126.22;5025761;28;20465;-85
2022/06/30 07:33:01;;;;;;;9.00;8.20;;;;;;;29.66;54.94;159011.97;5010664;28;20931;-85
2022/06/30 07:35:29;;;;;;;8.77;8.00;;;;;;;29.72;55.30;159027.72;4997835;28;20468;-86
2022/06/30 07:37:56;;;;;;;7.80;7.20;;;;;;;29.68;54.21;159015.94;5011196;28;20853;-85
2022/06/30 07:40:23;;;;;;;7.60;6.97;;;;;;;29.79;54.55;159046.13;5022376;28;20467;-85
2022/06/30 07:42:49;;;;;;;9.23;8.40;;;;;;;29.93;53.57;159082.91;5025980;28;20940;-85
2022/06/30 07:45:16;;;;;;;8.57;7.77;;;;;;;30.21;53.85;159153.78;5010963;28;20448;-86
2022/06/30 07:47:46;;;;;;;7.97;7.37;;;;;;;30.64;51.04;159266.72;5025896;28;20839;-85
2022/06/30 07:50:14;;;;;;;8.97;7.77;;;;;;;30.63;52.44;159264.13;5031487;28;20472;-86
2022/06/30 07:52:42;;;;;;;10.00;8.70;;;;;;;30.07;53.43;159118.34;5031324;28;20464;-85
2022/06/30 07:55:10;;;;;;;9.07;8.37;;;;;;;30.27;55.36;159169.50;5012475;28;20542;-85
2022/06/30 07:57:37;;;;;;;10.30;8.70;;;;;;;30.51;53.78;159232.56;5013015;28;20512;-86
2022/06/30 08:00:05;;;;;;;9.17;8.47;;;;;;;30.94;51.48;159344.25;5006296;28;20504;-86
2022/06/30 08:02:38;;;;;;;9.70;7.90;;;;;;;30.91;50.73;159337.69;5025370;28;20452;-86
2022/06/30 08:05:06;;;;;;;8.67;7.33;;;;;;;31.04;49.78;159371.81;5010113;28;20452;-85
2022/06/30 08:07:32;;;;;;;7.73;7.23;;;;;;;31.13;50.65;159394.16;5026811;28;20842;-85
2022/06/30 08:10:01;;;;;;;7.70;7.10;;;;;;;30.64;51.45;159268.03;5007301;28;20867;-85
2022/06/30 08:12:28;;;;;;;8.23;7.53;;;;;;;30.44;53.60;159215.53;5022875;28;20947;-85
2022/06/30 08:14:55;;;;;;;8.63;7.83;;;;;;;30.34;52.40;159187.91;5006519;28;20496;-85
2022/06/30 08:17:21;;;;;;;8.13;7.43;;;;;;;30.53;51.72;159237.81;5005737;28;20493;-85
2022/06/30 08:19:48;;;;;;;7.60;7.00;;;;;;;30.83;50.34;159316.63;5010437;28;20950;-85
2022/06/30 08:22:15;;;;;;;6.93;6.33;;;;;;;30.77;50.58;159300.84;5023990;28;20441;-85
2022/06/30 08:24:41;;;;;;;7.90;7.30;;;;;;;30.49;49.20;159227.34;4990674;28;20469;-85
2022/06/30 08:27:10;;;;;;;7.30;6.70;;;;;;;30.67;50.45;159274.59;5008852;28;20958;-85
2022/06/30 08:29:36;;;;;;;7.90;6.80;;;;;;;31.16;48.54;159403.31;5024918;28;20508;-85
2022/06/30 08:32:05;;;;;;;7.97;7.20;;;;;;;31.09;49.22;159384.94;5009992;28;20469;-85
2022/06/30 08:34:32;;;;;;;7.80;7.03;;;;;;;31.01;50.97;159363.94;5006222;28;20890;-85
2022/06/30 08:36:59;;;;;;;7.37;6.77;;;;;;;31.22;49.69;159419.09;5008751;28;20484;-86
2022/06/30 08:42:12;;;;;;;7.40;6.80;;;;;;;31.57;47.92;159508.47;5008654;28;20523;-86
2022/06/30 08:44:39;;;;;;;7.50;6.90;;;;;;;31.10;47.70;159387.59;5009380;28;20583;-86
2022/06/30 08:47:07;;;;;;;7.30;6.60;;;;;;;31.53;47.83;159499.31;5009509;28;20539;-86
2022/06/30 08:49:35;;;;;;;7.10;6.40;;;;;;;31.35;45.94;159453.25;5009679;28;20476;-86
2022/06/30 08:52:02;;;;;;;7.83;7.03;;;;;;;31.60;44.60;159516.38;5011310;28;20452;-85
2022/06/30 08:54:30;;;;;;;7.70;7.00;;;;;;;31.62;44.57;159521.59;5028660;28;20447;-85
2022/06/30 08:56:58;;;;;;;7.67;6.27;;;;;;;31.42;44.81;159469.03;5011885;28;20875;-86
2022/06/30 08:59:26;;;;;;;7.10;6.10;;;;;;;31.65;45.80;159530.81;5012416;28;20896;-86
2022/06/30 09:01:54;;;;;;;7.60;5.83;;;;;;;31.56;44.38;159505.88;5013116;28;20749;-86
2022/06/30 09:04:21;;;;;;;6.90;6.30;;;;;;;31.50;45.24;159490.09;5012668;28;20954;-85
2022/06/30 09:06:47;;;;;;;6.57;5.97;;;;;;;31.87;44.93;159588.66;5011799;28;20985;-86
2022/06/30 09:09:14;;;;;;;6.33;5.83;;;;;;;32.36;43.98;159716.13;5025266;28;21053;-86
2022/06/30 09:11:49;;;;;;;6.77;6.27;;;;;;;32.45;42.92;159739.81;5012369;28;20452;-86
2022/06/30 09:14:38;;;;;;;6.60;6.00;;;;;;;32.29;44.19;159696.44;5011567;28;20471;-85
2022/06/30 09:17:06;;;;;;;6.57;6.07;;;;;;;31.67;42.39;159534.75;5020786;28;20467;-86
2022/06/30 09:19:33;;;;;;;6.37;5.87;;;;;;;31.75;43.31;159557.09;5011633;28;20499;-85
2022/06/30 09:22:05;;;;;;;5.87;5.40;;;;;;;31.50;42.49;159491.41;5013593;28;20494;-85
2022/06/30 09:24:32;;;;;;;6.03;5.40;;;;;;;31.47;42.18;159483.53;5033029;28;20508;-85
2022/06/30 09:27:13;;;;;;;7.13;6.43;;;;;;;31.82;42.46;159574.19;5030456;28;20963;-85
2022/06/30 09:29:52;;;;;;;6.10;5.60;;;;;;;31.85;42.49;159582.06;5028379;28;20570;-85
2022/06/30 09:32:20;;;;;;;6.13;5.50;;;;;;;32.02;41.98;159626.78;5013960;28;20522;-85
2022/06/30 09:34:48;;;;;;;6.50;5.90;;;;;;;31.46;42.19;159479.56;5009904;28;20553;-84
2022/06/30 09:37:16;;;;;;;6.33;5.80;;;;;;;31.01;43.35;159363.94;5013467;28;20455;-85
2022/06/30 09:39:43;;;;;;;6.50;6.00;;;;;;;30.86;44.25;159324.50;5014106;28;20452;-85
2022/06/30 09:42:10;;;;;;;6.90;6.30;;;;;;;31.11;44.32;159388.91;5012357;28;20444;-85
2022/06/30 09:44:37;;;;;;;9.60;5.80;;;;;;;31.30;41.92;159438.78;5012592;28;20448;-85
2022/06/30 09:47:08;;;;;;;5.73;5.30;;;;;;;31.40;42.10;159463.78;5009845;28;20456;-86
2022/06/30 09:49:36;;;;;;;5.80;5.30;;;;;;;31.46;41.57;159480.88;5012383;28;20499;-86
2022/06/30 09:52:04;;;;;;;5.27;4.83;;;;;;;31.42;41.51;159469.03;5027682;28;20448;-85
2022/06/30 09:54:32;;;;;;;6.60;6.07;;;;;;;30.86;41.22;159324.50;5014279;28;20480;-85
2022/06/30 09:57:05;;;;;;;5.50;5.10;;;;;;;30.99;40.88;159358.69;5009115;28;20518;-85
2022/06/30 09:59:32;;;;;;;5.67;5.17;;;;;;;30.63;40.78;159265.38;5026781;28;20445;-85
2022/06/30 10:01:59;;;;;;;10.30;6.20;;;;;;;30.88;41.39;159328.41;5006119;28;20961;-85
2022/06/30 10:04:28;;;;;;;5.63;5.13;;;;;;;31.13;41.06;159394.16;5010935;28;20464;-85
2022/06/30 10:06:54;;;;;;;8.80;5.70;;;;;;;30.86;41.57;159324.50;5008813;28;20531;-86
2022/06/30 10:09:21;;;;;;;6.37;5.77;;;;;;;31.22;42.71;159419.09;5007837;28;20488;-86
2022/06/30 10:11:50;;;;;;;4.87;4.47;;;;;;;31.58;40.52;159512.44;5011160;28;20480;-85
2022/06/30 10:14:17;;;;;;;6.20;5.80;;;;;;;31.30;40.84;159440.13;5027087;28;20534;-85
2022/06/30 10:16:44;;;;;;;6.50;6.00;;;;;;;31.16;41.07;159402.06;5018320;28;20445;-85
2022/06/30 10:19:12;;;;;;;6.80;6.20;;;;;;;31.02;41.64;159365.25;4991120;28;20453;-85
2022/06/30 10:21:41;;;;;;;6.33;5.77;;;;;;;31.30;42.25;159440.13;5021972;28;20456;-85
2022/06/30 10:24:09;;;;;;;7.23;6.47;;;;;;;31.30;41.42;159440.13;5011839;28;20457;-85
2022/06/30 10:29:21;;;;;;;6.67;6.07;;;;;;;31.91;41.25;159599.13;5029136;28;20441;-85
2022/06/30 10:32:02;;;;;;;7.70;6.10;;;;;;;30.99;41.39;159357.38;5012460;28;20417;-85
2022/06/30 10:34:33;;;;;;;9.07;5.87;;;;;;;30.40;42.85;159203.69;5011842;28;20559;-85
2022/06/30 10:37:06;;;;;;;6.87;6.20;;;;;;;30.52;43.41;159235.22;5004655;28;21920;-85
2022/06/30 10:39:45;;;;;;;6.73;6.20;;;;;;;30.60;42.12;159257.56;5007641;28;20460;-85
2022/06/30 10:42:12;;;;;;;7.30;6.60;;;;;;;30.32;42.67;159183.94;5026081;28;20543;-85
2022/06/30 10:44:38;;;;;;;7.20;6.27;;;;;;;30.28;43.55;159173.47;5031880;28;20486;-84
2022/06/30 10:47:11;;;;;;;6.73;6.23;;;;;;;30.70;44.72;159283.81;5015156;28;20495;-85
2022/06/30 10:49:52;;;;;;;6.80;6.20;;;;;;;30.76;41.91;159298.25;5027274;28;20460;-85
2022/06/30 10:52:23;;;;;;;7.33;6.80;;;;;;;30.64;42.31;159266.72;5008568;28;20743;-84
2022/06/30 10:54:50;;;;;;;6.60;5.90;;;;;;;30.50;41.95;159229.97;5006653;28;20469;-85
2022/06/30 10:57:17;;;;;;;7.17;6.47;;;;;;;30.21;43.24;159153.78;5011498;28;20864;-85
2022/06/30 10:59:44;;;;;;;6.60;6.00;;;;;;;30.25;43.88;159164.25;5012043;28;20931;-85
2022/06/30 11:02:27;;;;;;;7.90;6.53;;;;;;;30.08;44.43;159122.25;5025803;28;20445;-85
2022/06/30 11:05:21;;;;;;;6.63;5.80;;;;;;;30.59;41.64;159253.59;5011532;28;20455;-86
2022/06/30 11:07:49;;;;;;;7.30;6.57;;;;;;;29.94;42.17;159084.22;5010863;28;20479;-86
2022/06/30 11:10:23;;;;;;;6.30;5.80;;;;;;;29.80;43.43;159048.78;5004462;28;20480;-86
2022/06/30 11:13:00;;;;;;;6.67;6.17;;;;;;;30.04;44.28;159110.44;5018292;28;20454;-86
2022/06/30 11:15:50;;;;;;;7.37;6.63;;;;;;;30.24;44.00;159161.63;4999907;28;20867;-86
2022/06/30 11:18:17;;;;;;;8.03;7.43;;;;;;;30.46;42.69;159220.78;5007776;28;20443;-86
2022/06/30 11:20:44;;;;;;;7.27;6.67;;;;;;;30.53;44.48;159237.81;5026217;28;20459;-86
2022/06/30 11:23:13;;;;;;;7.57;6.73;;;;;;;30.16;44.60;159143.25;5022998;28;21016;-86
2022/06/30 11:28:25;;;;;;;9.53;6.47;;;;;;;30.33;45.68;159185.28;5007998;28;20933;-87
2022/06/30 11:30:52;;;;;;;7.10;6.50;;;;;;;30.52;44.28;159236.53;5018278;28;21030;-86
2022/06/30 11:33:19;;;;;;;7.30;6.60;;;;;;;29.97;43.90;159093.38;5008607;28;20547;-86
2022/06/30 11:35:45;;;;;;;6.90;6.40;;;;;;;29.68;44.19;159017.19;5010342;28;20567;-86
2022/06/30 11:38:14;;;;;;;7.50;6.80;;;;;;;29.45;43.88;158958.16;5025235;28;20437;-84
2022/06/30 11:40:40;;;;;;;7.83;6.87;;;;;;;29.23;45.38;158899.16;5005235;28;20481;-83
2022/06/30 11:43:20;;;;;;;6.90;6.40;;;;;;;29.25;45.28;158905.72;5019498;28;20557;-84
2022/06/30 11:45:47;;;;;;;7.83;7.03;;;;;;;29.56;44.91;158985.72;5010516;28;20539;-86